Cripple Creek, Colorado
Current Conditions -  °F | °C
As of 9:56 AM on Saturday 22 Nov 2014 (Local Time) from KCWN Reporting Station
Clear Clear  
Wind Chill: 46°   Ceiling: Unl
Heat Index: 46°   Visibility: 10mi
Dew Point: 14°   Wind: 3mph
Humidity: 27%   Direction: NA
Pressure: 29.79"   Gusts: NA
Location:  38.75°N, 105.18°W
Report Text: KCWN 221656Z AUTO VRB03KT 10SM CLR 08/M10 A2979 RMK AO2 LTG DSNT E SLP063 T00781101
Loading
Personal Weather Stations






























Interactive Weather Map New forecast layout! Learn more

10-Day Weather Forecast

Advertisements
Track Severe Weather on mobile